sensor_id;sensor_type;location;lat;lon;timestamp;P1;durP1;ratioP1;P2;durP2;ratioP2
72095;SDS011;59968;51.084;16.748;2023-02-28T00:00:30;27.70;;;11.80;;
72095;SDS011;59968;51.084;16.748;2023-02-28T00:03:14;31.90;;;12.80;;
72095;SDS011;59968;51.084;16.748;2023-02-28T00:05:43;33.90;;;13.90;;
72095;SDS011;59968;51.084;16.748;2023-02-28T00:08:11;38.70;;;15.20;;
72095;SDS011;59968;51.084;16.748;2023-02-28T00:10:41;38.10;;;15.10;;
72095;SDS011;59968;51.084;16.748;2023-02-28T00:13:10;46.00;;;16.80;;
72095;SDS011;59968;51.084;16.748;2023-02-28T00:15:39;39.90;;;15.60;;
72095;SDS011;59968;51.084;16.748;2023-02-28T00:18:09;37.30;;;15.50;;
72095;SDS011;59968;51.084;16.748;2023-02-28T00:20:37;37.70;;;13.80;;
72095;SDS011;59968;51.084;16.748;2023-02-28T00:23:06;42.70;;;16.20;;
72095;SDS011;59968;51.084;16.748;2023-02-28T00:25:34;41.70;;;16.50;;
72095;SDS011;59968;51.084;16.748;2023-02-28T00:28:03;41.50;;;16.50;;
72095;SDS011;59968;51.084;16.748;2023-02-28T00:30:33;42.40;;;15.20;;
72095;SDS011;59968;51.084;16.748;2023-02-28T00:33:04;38.20;;;15.50;;
72095;SDS011;59968;51.084;16.748;2023-02-28T00:35:33;40.00;;;15.20;;
72095;SDS011;59968;51.084;16.748;2023-02-28T00:38:01;37.60;;;15.20;;
72095;SDS011;59968;51.084;16.748;2023-02-28T00:40:30;42.50;;;16.70;;
72095;SDS011;59968;51.084;16.748;2023-02-28T00:42:58;44.00;;;16.30;;
72095;SDS011;59968;51.084;16.748;2023-02-28T00:45:26;38.10;;;14.40;;
72095;SDS011;59968;51.084;16.748;2023-02-28T00:47:54;41.00;;;14.50;;
72095;SDS011;59968;51.084;16.748;2023-02-28T00:50:23;48.30;;;16.60;;
72095;SDS011;59968;51.084;16.748;2023-02-28T00:52:51;42.40;;;16.90;;
72095;SDS011;59968;51.084;16.748;2023-02-28T00:55:20;42.90;;;16.70;;
72095;SDS011;59968;51.084;16.748;2023-02-28T00:57:49;49.20;;;17.30;;
72095;SDS011;59968;51.084;16.748;2023-02-28T01:00:17;46.00;;;17.80;;
72095;SDS011;59968;51.084;16.748;2023-02-28T01:02:46;43.00;;;16.00;;
72095;SDS011;59968;51.084;16.748;2023-02-28T01:05:15;49.80;;;18.70;;
72095;SDS011;59968;51.084;16.748;2023-02-28T01:07:45;41.60;;;16.50;;
72095;SDS011;59968;51.084;16.748;2023-02-28T01:10:13;46.70;;;17.10;;
72095;SDS011;59968;51.084;16.748;2023-02-28T01:12:41;40.30;;;15.30;;
72095;SDS011;59968;51.084;16.748;2023-02-28T01:15:10;44.20;;;16.90;;
72095;SDS011;59968;51.084;16.748;2023-02-28T01:17:39;53.60;;;18.50;;
72095;SDS011;59968;51.084;16.748;2023-02-28T01:20:08;50.00;;;17.30;;
72095;SDS011;59968;51.084;16.748;2023-02-28T01:22:37;51.40;;;18.60;;
72095;SDS011;59968;51.084;16.748;2023-02-28T01:25:06;46.50;;;17.40;;
72095;SDS011;59968;51.084;16.748;2023-02-28T01:27:34;44.40;;;17.70;;
72095;SDS011;59968;51.084;16.748;2023-02-28T01:30:03;51.70;;;17.70;;
72095;SDS011;59968;51.084;16.748;2023-02-28T01:32:32;39.80;;;15.90;;
72095;SDS011;59968;51.084;16.748;2023-02-28T01:35:00;38.20;;;16.30;;
72095;SDS011;59968;51.084;16.748;2023-02-28T01:37:28;37.80;;;15.80;;
72095;SDS011;59968;51.084;16.748;2023-02-28T01:39:57;44.70;;;16.80;;
72095;SDS011;59968;51.084;16.748;2023-02-28T01:42:25;33.00;;;14.10;;
72095;SDS011;59968;51.084;16.748;2023-02-28T01:47:35;34.90;;;14.10;;
72095;SDS011;59968;51.084;16.748;2023-02-28T01:50:07;36.60;;;14.70;;
72095;SDS011;59968;51.084;16.748;2023-02-28T01:52:40;33.90;;;14.50;;
72095;SDS011;59968;51.084;16.748;2023-02-28T01:55:10;36.70;;;14.70;;
72095;SDS011;59968;51.084;16.748;2023-02-28T01:57:42;35.60;;;14.50;;
72095;SDS011;59968;51.084;16.748;2023-02-28T02:00:17;35.90;;;13.80;;
72095;SDS011;59968;51.084;16.748;2023-02-28T02:02:49;34.10;;;13.20;;
72095;SDS011;59968;51.084;16.748;2023-02-28T02:05:24;37.40;;;14.40;;
72095;SDS011;59968;51.084;16.748;2023-02-28T02:07:55;34.80;;;14.80;;
72095;SDS011;59968;51.084;16.748;2023-02-28T02:24:17;30.90;;;12.90;;
72095;SDS011;59968;51.084;16.748;2023-02-28T02:38:01;33.50;;;12.80;;
72095;SDS011;59968;51.084;16.748;2023-02-28T02:43:29;30.10;;;11.70;;
72095;SDS011;59968;51.084;16.748;2023-02-28T02:48:54;31.20;;;14.00;;
72095;SDS011;59968;51.084;16.748;2023-02-28T02:51:26;30.90;;;14.40;;
72095;SDS011;59968;51.084;16.748;2023-02-28T02:54:02;29.60;;;13.70;;
72095;SDS011;59968;51.084;16.748;2023-02-28T02:56:35;30.20;;;13.20;;
72095;SDS011;59968;51.084;16.748;2023-02-28T02:59:07;36.30;;;14.90;;
72095;SDS011;59968;51.084;16.748;2023-02-28T03:01:40;32.00;;;15.20;;
72095;SDS011;59968;51.084;16.748;2023-02-28T03:04:14;34.70;;;16.90;;
72095;SDS011;59968;51.084;16.748;2023-02-28T03:06:47;29.70;;;15.10;;
72095;SDS011;59968;51.084;16.748;2023-02-28T03:09:16;35.30;;;16.20;;
72095;SDS011;59968;51.084;16.748;2023-02-28T03:11:46;64.00;;;22.00;;
72095;SDS011;59968;51.084;16.748;2023-02-28T03:17:23;45.10;;;20.90;;
72095;SDS011;59968;51.084;16.748;2023-02-28T03:28:24;35.80;;;14.90;;
72095;SDS011;59968;51.084;16.748;2023-02-28T03:30:57;31.20;;;14.10;;
72095;SDS011;59968;51.084;16.748;2023-02-28T03:33:46;28.50;;;13.10;;
72095;SDS011;59968;51.084;16.748;2023-02-28T03:36:24;28.60;;;12.50;;
72095;SDS011;59968;51.084;16.748;2023-02-28T03:39:02;29.90;;;12.90;;
72095;SDS011;59968;51.084;16.748;2023-02-28T03:41:38;25.90;;;11.70;;
72095;SDS011;59968;51.084;16.748;2023-02-28T03:44:51;28.20;;;12.60;;
72095;SDS011;59968;51.084;16.748;2023-02-28T03:50:24;23.50;;;10.80;;
72095;SDS011;59968;51.084;16.748;2023-02-28T03:53:01;28.50;;;11.00;;
72095;SDS011;59968;51.084;16.748;2023-02-28T03:55:37;31.10;;;14.10;;
72095;SDS011;59968;51.084;16.748;2023-02-28T04:01:12;29.30;;;12.80;;
72095;SDS011;59968;51.084;16.748;2023-02-28T04:03:45;26.60;;;12.30;;
72095;SDS011;59968;51.084;16.748;2023-02-28T04:06:17;29.20;;;13.00;;
72095;SDS011;59968;51.084;16.748;2023-02-28T04:08:47;29.50;;;13.00;;
72095;SDS011;59968;51.084;16.748;2023-02-28T04:11:19;32.40;;;13.00;;
72095;SDS011;59968;51.084;16.748;2023-02-28T04:13:50;30.90;;;13.70;;
72095;SDS011;59968;51.084;16.748;2023-02-28T04:16:19;40.80;;;16.40;;
72095;SDS011;59968;51.084;16.748;2023-02-28T04:19:05;35.50;;;15.60;;
72095;SDS011;59968;51.084;16.748;2023-02-28T04:21:36;33.30;;;14.90;;
72095;SDS011;59968;51.084;16.748;2023-02-28T04:24:10;34.10;;;14.80;;
72095;SDS011;59968;51.084;16.748;2023-02-28T04:26:43;30.60;;;14.50;;
72095;SDS011;59968;51.084;16.748;2023-02-28T04:29:13;34.50;;;15.40;;
72095;SDS011;59968;51.084;16.748;2023-02-28T04:31:46;49.70;;;21.00;;
72095;SDS011;59968;51.084;16.748;2023-02-28T04:34:15;80.30;;;33.70;;
72095;SDS011;59968;51.084;16.748;2023-02-28T04:36:44;40.20;;;19.70;;
72095;SDS011;59968;51.084;16.748;2023-02-28T04:39:13;33.00;;;14.20;;
72095;SDS011;59968;51.084;16.748;2023-02-28T04:41:42;30.50;;;14.40;;
72095;SDS011;59968;51.084;16.748;2023-02-28T04:44:11;27.50;;;12.80;;
72095;SDS011;59968;51.084;16.748;2023-02-28T04:46:39;57.90;;;26.30;;
72095;SDS011;59968;51.084;16.748;2023-02-28T04:49:10;33.40;;;15.60;;
72095;SDS011;59968;51.084;16.748;2023-02-28T04:51:40;68.30;;;32.70;;
72095;SDS011;59968;51.084;16.748;2023-02-28T04:54:09;43.10;;;20.30;;
72095;SDS011;59968;51.084;16.748;2023-02-28T04:56:38;30.40;;;13.30;;
72095;SDS011;59968;51.084;16.748;2023-02-28T04:59:06;29.60;;;12.90;;
72095;SDS011;59968;51.084;16.748;2023-02-28T05:01:34;30.00;;;13.60;;
72095;SDS011;59968;51.084;16.748;2023-02-28T05:04:04;32.90;;;15.00;;
72095;SDS011;59968;51.084;16.748;2023-02-28T05:06:32;27.80;;;12.10;;
72095;SDS011;59968;51.084;16.748;2023-02-28T05:09:02;29.90;;;12.60;;
72095;SDS011;59968;51.084;16.748;2023-02-28T05:11:31;28.40;;;12.30;;
72095;SDS011;59968;51.084;16.748;2023-02-28T05:14:08;32.90;;;13.70;;
72095;SDS011;59968;51.084;16.748;2023-02-28T05:16:42;27.60;;;11.60;;
72095;SDS011;59968;51.084;16.748;2023-02-28T05:19:10;28.80;;;12.20;;
72095;SDS011;59968;51.084;16.748;2023-02-28T05:21:52;27.80;;;12.00;;
72095;SDS011;59968;51.084;16.748;2023-02-28T05:24:22;28.10;;;11.90;;
72095;SDS011;59968;51.084;16.748;2023-02-28T05:26:52;29.00;;;12.10;;
72095;SDS011;59968;51.084;16.748;2023-02-28T05:29:22;67.80;;;25.10;;
72095;SDS011;59968;51.084;16.748;2023-02-28T05:31:50;70.20;;;27.70;;
72095;SDS011;59968;51.084;16.748;2023-02-28T05:34:19;88.70;;;34.50;;
72095;SDS011;59968;51.084;16.748;2023-02-28T05:36:48;39.30;;;15.70;;
72095;SDS011;59968;51.084;16.748;2023-02-28T05:39:16;32.80;;;14.00;;
72095;SDS011;59968;51.084;16.748;2023-02-28T05:41:44;26.10;;;11.90;;
72095;SDS011;59968;51.084;16.748;2023-02-28T05:44:13;32.50;;;13.10;;
72095;SDS011;59968;51.084;16.748;2023-02-28T05:46:41;29.30;;;12.10;;
72095;SDS011;59968;51.084;16.748;2023-02-28T05:49:09;49.20;;;20.80;;
72095;SDS011;59968;51.084;16.748;2023-02-28T05:51:37;35.50;;;15.60;;
72095;SDS011;59968;51.084;16.748;2023-02-28T05:54:07;32.40;;;13.70;;
72095;SDS011;59968;51.084;16.748;2023-02-28T05:56:36;31.80;;;13.40;;
72095;SDS011;59968;51.084;16.748;2023-02-28T05:59:07;31.40;;;14.10;;
72095;SDS011;59968;51.084;16.748;2023-02-28T06:01:40;33.90;;;14.50;;
72095;SDS011;59968;51.084;16.748;2023-02-28T06:04:10;31.00;;;13.10;;
72095;SDS011;59968;51.084;16.748;2023-02-28T06:06:52;34.90;;;16.80;;
72095;SDS011;59968;51.084;16.748;2023-02-28T06:09:23;29.20;;;12.70;;
72095;SDS011;59968;51.084;16.748;2023-02-28T06:12:04;101.30;;;41.30;;
72095;SDS011;59968;51.084;16.748;2023-02-28T06:14:36;48.00;;;20.90;;
72095;SDS011;59968;51.084;16.748;2023-02-28T06:17:05;67.40;;;31.40;;
72095;SDS011;59968;51.084;16.748;2023-02-28T06:19:33;32.40;;;14.80;;
72095;SDS011;59968;51.084;16.748;2023-02-28T06:22:01;26.20;;;11.90;;
72095;SDS011;59968;51.084;16.748;2023-02-28T06:24:29;29.20;;;12.80;;
72095;SDS011;59968;51.084;16.748;2023-02-28T06:26:59;30.30;;;12.90;;
72095;SDS011;59968;51.084;16.748;2023-02-28T06:29:33;39.80;;;17.70;;
72095;SDS011;59968;51.084;16.748;2023-02-28T06:32:02;31.00;;;13.90;;
72095;SDS011;59968;51.084;16.748;2023-02-28T06:34:31;30.70;;;12.50;;
72095;SDS011;59968;51.084;16.748;2023-02-28T06:37:01;29.80;;;13.30;;
72095;SDS011;59968;51.084;16.748;2023-02-28T06:39:30;25.90;;;11.80;;
72095;SDS011;59968;51.084;16.748;2023-02-28T06:41:59;32.50;;;13.40;;
72095;SDS011;59968;51.084;16.748;2023-02-28T06:44:28;29.70;;;12.40;;
72095;SDS011;59968;51.084;16.748;2023-02-28T06:47:04;26.30;;;11.90;;
72095;SDS011;59968;51.084;16.748;2023-02-28T06:49:34;31.20;;;13.40;;
72095;SDS011;59968;51.084;16.748;2023-02-28T06:52:03;34.90;;;13.90;;
72095;SDS011;59968;51.084;16.748;2023-02-28T06:54:32;29.80;;;12.60;;
72095;SDS011;59968;51.084;16.748;2023-02-28T06:57:01;32.70;;;14.00;;
72095;SDS011;59968;51.084;16.748;2023-02-28T06:59:30;29.50;;;13.60;;
72095;SDS011;59968;51.084;16.748;2023-02-28T07:01:58;30.80;;;12.40;;
72095;SDS011;59968;51.084;16.748;2023-02-28T07:04:28;27.90;;;12.90;;
72095;SDS011;59968;51.084;16.748;2023-02-28T07:06:56;30.40;;;12.40;;
72095;SDS011;59968;51.084;16.748;2023-02-28T07:09:25;24.90;;;11.10;;
72095;SDS011;59968;51.084;16.748;2023-02-28T07:11:58;24.60;;;10.80;;
72095;SDS011;59968;51.084;16.748;2023-02-28T07:14:27;22.10;;;9.80;;
72095;SDS011;59968;51.084;16.748;2023-02-28T07:16:55;21.40;;;9.60;;
72095;SDS011;59968;51.084;16.748;2023-02-28T07:19:24;19.70;;;9.60;;
72095;SDS011;59968;51.084;16.748;2023-02-28T07:21:52;27.10;;;11.40;;
72095;SDS011;59968;51.084;16.748;2023-02-28T07:24:21;24.50;;;10.90;;
72095;SDS011;59968;51.084;16.748;2023-02-28T07:26:51;28.30;;;11.60;;
72095;SDS011;59968;51.084;16.748;2023-02-28T07:29:20;24.80;;;11.20;;
72095;SDS011;59968;51.084;16.748;2023-02-28T07:31:49;24.10;;;11.20;;
72095;SDS011;59968;51.084;16.748;2023-02-28T07:34:22;22.50;;;10.20;;
72095;SDS011;59968;51.084;16.748;2023-02-28T07:36:54;21.90;;;10.10;;
72095;SDS011;59968;51.084;16.748;2023-02-28T07:39:23;24.80;;;11.00;;
72095;SDS011;59968;51.084;16.748;2023-02-28T07:41:52;25.70;;;11.20;;
72095;SDS011;59968;51.084;16.748;2023-02-28T07:44:26;22.10;;;9.50;;
72095;SDS011;59968;51.084;16.748;2023-02-28T07:46:55;22.50;;;10.20;;
72095;SDS011;59968;51.084;16.748;2023-02-28T07:49:24;20.60;;;9.90;;
72095;SDS011;59968;51.084;16.748;2023-02-28T07:51:52;21.10;;;9.40;;
72095;SDS011;59968;51.084;16.748;2023-02-28T07:54:21;19.30;;;8.80;;
72095;SDS011;59968;51.084;16.748;2023-02-28T07:56:49;15.60;;;7.80;;
72095;SDS011;59968;51.084;16.748;2023-02-28T07:59:18;16.70;;;7.50;;
72095;SDS011;59968;51.084;16.748;2023-02-28T08:01:46;15.20;;;7.40;;
72095;SDS011;59968;51.084;16.748;2023-02-28T08:04:18;15.80;;;7.40;;
72095;SDS011;59968;51.084;16.748;2023-02-28T08:06:46;15.30;;;7.80;;
72095;SDS011;59968;51.084;16.748;2023-02-28T08:09:20;15.20;;;7.50;;
72095;SDS011;59968;51.084;16.748;2023-02-28T08:11:49;13.60;;;7.30;;
72095;SDS011;59968;51.084;16.748;2023-02-28T08:14:17;14.10;;;7.20;;
72095;SDS011;59968;51.084;16.748;2023-02-28T08:16:46;13.50;;;6.80;;
72095;SDS011;59968;51.084;16.748;2023-02-28T08:19:16;19.00;;;8.80;;
72095;SDS011;59968;51.084;16.748;2023-02-28T08:21:44;13.70;;;7.60;;
72095;SDS011;59968;51.084;16.748;2023-02-28T08:24:13;14.90;;;7.50;;
72095;SDS011;59968;51.084;16.748;2023-02-28T08:26:41;14.00;;;6.50;;
72095;SDS011;59968;51.084;16.748;2023-02-28T08:29:10;13.30;;;6.90;;
72095;SDS011;59968;51.084;16.748;2023-02-28T08:31:38;12.70;;;7.20;;
72095;SDS011;59968;51.084;16.748;2023-02-28T08:34:11;11.30;;;6.30;;
72095;SDS011;59968;51.084;16.748;2023-02-28T08:36:42;13.00;;;6.70;;
72095;SDS011;59968;51.084;16.748;2023-02-28T08:39:12;12.50;;;6.00;;
72095;SDS011;59968;51.084;16.748;2023-02-28T08:41:41;11.60;;;6.10;;
72095;SDS011;59968;51.084;16.748;2023-02-28T08:44:10;12.20;;;6.10;;
72095;SDS011;59968;51.084;16.748;2023-02-28T08:46:38;14.70;;;7.20;;
72095;SDS011;59968;51.084;16.748;2023-02-28T08:49:08;19.10;;;7.50;;
72095;SDS011;59968;51.084;16.748;2023-02-28T08:51:38;17.80;;;7.70;;
72095;SDS011;59968;51.084;16.748;2023-02-28T08:54:07;12.30;;;6.30;;
72095;SDS011;59968;51.084;16.748;2023-02-28T08:56:36;9.90;;;5.30;;
72095;SDS011;59968;51.084;16.748;2023-02-28T08:59:05;10.50;;;5.50;;
72095;SDS011;59968;51.084;16.748;2023-02-28T09:01:33;10.90;;;5.40;;
72095;SDS011;59968;51.084;16.748;2023-02-28T09:04:02;11.40;;;5.60;;
72095;SDS011;59968;51.084;16.748;2023-02-28T09:06:30;10.80;;;5.70;;
72095;SDS011;59968;51.084;16.748;2023-02-28T09:09:00;11.50;;;6.20;;
72095;SDS011;59968;51.084;16.748;2023-02-28T09:11:29;10.50;;;5.40;;
72095;SDS011;59968;51.084;16.748;2023-02-28T09:13:58;10.50;;;6.00;;
72095;SDS011;59968;51.084;16.748;2023-02-28T09:16:29;12.00;;;5.70;;
72095;SDS011;59968;51.084;16.748;2023-02-28T09:19:00;12.80;;;6.00;;
72095;SDS011;59968;51.084;16.748;2023-02-28T09:21:32;9.90;;;5.00;;
72095;SDS011;59968;51.084;16.748;2023-02-28T09:24:01;10.10;;;4.90;;
72095;SDS011;59968;51.084;16.748;2023-02-28T09:26:29;10.30;;;5.70;;
72095;SDS011;59968;51.084;16.748;2023-02-28T09:29:10;11.70;;;6.00;;
72095;SDS011;59968;51.084;16.748;2023-02-28T09:31:39;10.30;;;5.80;;
72095;SDS011;59968;51.084;16.748;2023-02-28T09:34:08;11.90;;;6.00;;
72095;SDS011;59968;51.084;16.748;2023-02-28T09:36:37;12.00;;;6.80;;
72095;SDS011;59968;51.084;16.748;2023-02-28T09:39:13;13.00;;;5.90;;
72095;SDS011;59968;51.084;16.748;2023-02-28T09:41:44;13.60;;;6.40;;
72095;SDS011;59968;51.084;16.748;2023-02-28T09:44:52;10.70;;;6.00;;
72095;SDS011;59968;51.084;16.748;2023-02-28T09:47:33;11.10;;;5.40;;
72095;SDS011;59968;51.084;16.748;2023-02-28T09:52:55;9.90;;;5.50;;
72095;SDS011;59968;51.084;16.748;2023-02-28T09:58:30;12.00;;;5.70;;
72095;SDS011;59968;51.084;16.748;2023-02-28T10:04:05;12.60;;;6.10;;
72095;SDS011;59968;51.084;16.748;2023-02-28T10:06:50;14.10;;;6.60;;
72095;SDS011;59968;51.084;16.748;2023-02-28T10:09:22;13.60;;;5.40;;
72095;SDS011;59968;51.084;16.748;2023-02-28T10:11:56;12.60;;;6.50;;
72095;SDS011;59968;51.084;16.748;2023-02-28T10:14:33;12.10;;;6.30;;
72095;SDS011;59968;51.084;16.748;2023-02-28T10:17:10;14.40;;;7.10;;
72095;SDS011;59968;51.084;16.748;2023-02-28T10:22:19;13.60;;;6.70;;
72095;SDS011;59968;51.084;16.748;2023-02-28T10:24:50;13.70;;;7.20;;
72095;SDS011;59968;51.084;16.748;2023-02-28T10:27:21;12.80;;;7.20;;
72095;SDS011;59968;51.084;16.748;2023-02-28T10:29:53;16.00;;;7.50;;
72095;SDS011;59968;51.084;16.748;2023-02-28T10:32:29;16.00;;;6.80;;
72095;SDS011;59968;51.084;16.748;2023-02-28T10:37:38;9.50;;;5.20;;
72095;SDS011;59968;51.084;16.748;2023-02-28T10:42:57;14.30;;;6.20;;
72095;SDS011;59968;51.084;16.748;2023-02-28T10:45:32;12.10;;;6.00;;
72095;SDS011;59968;51.084;16.748;2023-02-28T11:01:20;11.20;;;5.30;;
72095;SDS011;59968;51.084;16.748;2023-02-28T11:07:16;14.30;;;6.20;;
72095;SDS011;59968;51.084;16.748;2023-02-28T11:09:54;12.40;;;5.50;;
72095;SDS011;59968;51.084;16.748;2023-02-28T11:12:39;11.30;;;5.50;;
72095;SDS011;59968;51.084;16.748;2023-02-28T11:21:01;10.40;;;5.20;;
72095;SDS011;59968;51.084;16.748;2023-02-28T11:23:32;9.90;;;5.00;;
72095;SDS011;59968;51.084;16.748;2023-02-28T11:26:04;10.40;;;4.50;;
72095;SDS011;59968;51.084;16.748;2023-02-28T11:28:41;9.30;;;4.30;;
72095;SDS011;59968;51.084;16.748;2023-02-28T11:38:48;9.50;;;4.10;;
72095;SDS011;59968;51.084;16.748;2023-02-28T11:46:49;10.70;;;4.60;;
72095;SDS011;59968;51.084;16.748;2023-02-28T11:49:39;11.40;;;4.80;;
72095;SDS011;59968;51.084;16.748;2023-02-28T11:52:40;9.40;;;5.20;;
72095;SDS011;59968;51.084;16.748;2023-02-28T11:55:24;12.10;;;5.20;;
72095;SDS011;59968;51.084;16.748;2023-02-28T12:03:56;10.00;;;4.70;;
72095;SDS011;59968;51.084;16.748;2023-02-28T12:06:50;11.20;;;5.50;;
72095;SDS011;59968;51.084;16.748;2023-02-28T12:20:44;10.80;;;4.90;;
72095;SDS011;59968;51.084;16.748;2023-02-28T12:23:40;11.40;;;5.30;;
72095;SDS011;59968;51.084;16.748;2023-02-28T12:32:04;12.20;;;5.20;;
72095;SDS011;59968;51.084;16.748;2023-02-28T12:40:19;13.20;;;6.10;;
72095;SDS011;59968;51.084;16.748;2023-02-28T12:42:51;12.30;;;6.20;;
72095;SDS011;59968;51.084;16.748;2023-02-28T12:45:24;13.40;;;6.50;;
72095;SDS011;59968;51.084;16.748;2023-02-28T12:47:57;13.80;;;7.20;;
72095;SDS011;59968;51.084;16.748;2023-02-28T12:50:30;11.20;;;5.80;;
72095;SDS011;59968;51.084;16.748;2023-02-28T12:58:41;11.80;;;6.10;;
72095;SDS011;59968;51.084;16.748;2023-02-28T13:04:14;9.20;;;4.70;;
72095;SDS011;59968;51.084;16.748;2023-02-28T13:09:54;13.30;;;6.80;;
72095;SDS011;59968;51.084;16.748;2023-02-28T13:12:29;11.90;;;6.30;;
72095;SDS011;59968;51.084;16.748;2023-02-28T13:15:02;12.30;;;5.90;;
72095;SDS011;59968;51.084;16.748;2023-02-28T13:17:57;7.60;;;3.20;;
72095;SDS011;59968;51.084;16.748;2023-02-28T13:20:33;9.80;;;4.50;;
72095;SDS011;59968;51.084;16.748;2023-02-28T13:23:05;8.50;;;4.30;;
72095;SDS011;59968;51.084;16.748;2023-02-28T13:26:08;10.30;;;4.40;;
72095;SDS011;59968;51.084;16.748;2023-02-28T13:31:24;10.00;;;4.70;;
72095;SDS011;59968;51.084;16.748;2023-02-28T13:36:28;9.90;;;5.10;;
72095;SDS011;59968;51.084;16.748;2023-02-28T13:38:59;12.00;;;5.20;;
72095;SDS011;59968;51.084;16.748;2023-02-28T13:44:11;10.00;;;5.10;;
72095;SDS011;59968;51.084;16.748;2023-02-28T13:49:28;11.50;;;5.60;;
72095;SDS011;59968;51.084;16.748;2023-02-28T14:00:42;10.80;;;4.80;;
72095;SDS011;59968;51.084;16.748;2023-02-28T14:06:50;13.20;;;5.40;;
72095;SDS011;59968;51.084;16.748;2023-02-28T14:18:25;11.00;;;5.40;;
72095;SDS011;59968;51.084;16.748;2023-02-28T14:24:03;12.90;;;4.90;;
72095;SDS011;59968;51.084;16.748;2023-02-28T14:26:45;12.10;;;5.40;;
72095;SDS011;59968;51.084;16.748;2023-02-28T14:37:28;12.90;;;6.00;;
72095;SDS011;59968;51.084;16.748;2023-02-28T14:40:01;11.90;;;5.30;;
72095;SDS011;59968;51.084;16.748;2023-02-28T14:42:33;6.80;;;3.50;;
72095;SDS011;59968;51.084;16.748;2023-02-28T14:45:03;12.30;;;6.10;;
72095;SDS011;59968;51.084;16.748;2023-02-28T14:47:33;12.70;;;6.20;;
72095;SDS011;59968;51.084;16.748;2023-02-28T14:50:04;13.00;;;5.60;;
72095;SDS011;59968;51.084;16.748;2023-02-28T14:52:33;12.50;;;5.60;;
72095;SDS011;59968;51.084;16.748;2023-02-28T14:55:04;10.60;;;5.10;;
72095;SDS011;59968;51.084;16.748;2023-02-28T14:57:39;12.00;;;5.50;;
72095;SDS011;59968;51.084;16.748;2023-02-28T15:00:22;13.20;;;5.60;;
72095;SDS011;59968;51.084;16.748;2023-02-28T15:02:55;14.10;;;5.70;;
72095;SDS011;59968;51.084;16.748;2023-02-28T15:08:02;13.10;;;5.90;;
72095;SDS011;59968;51.084;16.748;2023-02-28T15:10:33;11.60;;;5.60;;
72095;SDS011;59968;51.084;16.748;2023-02-28T15:13:04;11.00;;;5.90;;
72095;SDS011;59968;51.084;16.748;2023-02-28T15:15:50;11.70;;;5.60;;
72095;SDS011;59968;51.084;16.748;2023-02-28T15:18:51;10.00;;;4.70;;
72095;SDS011;59968;51.084;16.748;2023-02-28T15:21:26;12.30;;;6.90;;
72095;SDS011;59968;51.084;16.748;2023-02-28T15:24:00;14.70;;;6.40;;
72095;SDS011;59968;51.084;16.748;2023-02-28T15:26:37;15.40;;;6.90;;
72095;SDS011;59968;51.084;16.748;2023-02-28T15:29:10;14.20;;;6.40;;
72095;SDS011;59968;51.084;16.748;2023-02-28T15:31:44;11.90;;;5.40;;
72095;SDS011;59968;51.084;16.748;2023-02-28T15:37:33;11.90;;;6.00;;
72095;SDS011;59968;51.084;16.748;2023-02-28T15:43:18;12.80;;;6.20;;
72095;SDS011;59968;51.084;16.748;2023-02-28T15:48:34;11.60;;;5.70;;
72095;SDS011;59968;51.084;16.748;2023-02-28T15:54:07;17.90;;;8.20;;
72095;SDS011;59968;51.084;16.748;2023-02-28T15:56:49;14.70;;;6.70;;
72095;SDS011;59968;51.084;16.748;2023-02-28T15:59:26;14.20;;;6.30;;
72095;SDS011;59968;51.084;16.748;2023-02-28T16:02:02;10.80;;;5.40;;
72095;SDS011;59968;51.084;16.748;2023-02-28T16:04:32;10.00;;;4.80;;
72095;SDS011;59968;51.084;16.748;2023-02-28T16:07:03;11.20;;;5.10;;
72095;SDS011;59968;51.084;16.748;2023-02-28T16:09:34;13.40;;;5.50;;
72095;SDS011;59968;51.084;16.748;2023-02-28T16:12:03;14.60;;;6.80;;
72095;SDS011;59968;51.084;16.748;2023-02-28T16:14:34;13.60;;;6.10;;
72095;SDS011;59968;51.084;16.748;2023-02-28T16:17:13;14.80;;;6.50;;
72095;SDS011;59968;51.084;16.748;2023-02-28T16:19:49;15.50;;;6.70;;
72095;SDS011;59968;51.084;16.748;2023-02-28T16:22:18;12.80;;;5.80;;
72095;SDS011;59968;51.084;16.748;2023-02-28T16:24:47;12.60;;;5.80;;
72095;SDS011;59968;51.084;16.748;2023-02-28T16:27:17;15.50;;;6.60;;
72095;SDS011;59968;51.084;16.748;2023-02-28T16:29:56;13.30;;;5.70;;
72095;SDS011;59968;51.084;16.748;2023-02-28T16:32:27;13.30;;;6.20;;
72095;SDS011;59968;51.084;16.748;2023-02-28T16:34:58;13.80;;;5.80;;
72095;SDS011;59968;51.084;16.748;2023-02-28T16:37:27;13.90;;;6.40;;
72095;SDS011;59968;51.084;16.748;2023-02-28T16:39:57;14.20;;;6.50;;
72095;SDS011;59968;51.084;16.748;2023-02-28T16:42:27;14.50;;;6.30;;
72095;SDS011;59968;51.084;16.748;2023-02-28T16:44:57;14.10;;;6.20;;
72095;SDS011;59968;51.084;16.748;2023-02-28T16:47:27;14.10;;;6.20;;
72095;SDS011;59968;51.084;16.748;2023-02-28T16:49:56;15.70;;;7.00;;
72095;SDS011;59968;51.084;16.748;2023-02-28T16:52:25;18.60;;;7.20;;
72095;SDS011;59968;51.084;16.748;2023-02-28T16:54:55;17.70;;;7.10;;
72095;SDS011;59968;51.084;16.748;2023-02-28T16:57:26;16.90;;;7.40;;
72095;SDS011;59968;51.084;16.748;2023-02-28T16:59:55;17.50;;;7.80;;
72095;SDS011;59968;51.084;16.748;2023-02-28T17:02:24;18.80;;;8.10;;
72095;SDS011;59968;51.084;16.748;2023-02-28T17:04:53;19.60;;;8.20;;
72095;SDS011;59968;51.084;16.748;2023-02-28T17:07:22;20.00;;;8.80;;
72095;SDS011;59968;51.084;16.748;2023-02-28T17:09:52;17.90;;;7.60;;
72095;SDS011;59968;51.084;16.748;2023-02-28T17:12:20;16.30;;;7.40;;
72095;SDS011;59968;51.084;16.748;2023-02-28T17:14:50;16.70;;;7.00;;
72095;SDS011;59968;51.084;16.748;2023-02-28T17:17:20;17.80;;;7.60;;
72095;SDS011;59968;51.084;16.748;2023-02-28T17:19:50;20.10;;;7.90;;
72095;SDS011;59968;51.084;16.748;2023-02-28T17:22:19;20.70;;;8.60;;
72095;SDS011;59968;51.084;16.748;2023-02-28T17:24:48;22.50;;;9.20;;
72095;SDS011;59968;51.084;16.748;2023-02-28T17:27:17;23.70;;;9.90;;
72095;SDS011;59968;51.084;16.748;2023-02-28T17:29:46;21.80;;;9.10;;
72095;SDS011;59968;51.084;16.748;2023-02-28T17:32:18;20.40;;;8.60;;
72095;SDS011;59968;51.084;16.748;2023-02-28T17:34:47;20.50;;;8.50;;
72095;SDS011;59968;51.084;16.748;2023-02-28T17:37:17;24.60;;;9.80;;
72095;SDS011;59968;51.084;16.748;2023-02-28T17:39:46;24.20;;;9.00;;
72095;SDS011;59968;51.084;16.748;2023-02-28T17:42:16;24.80;;;9.90;;
72095;SDS011;59968;51.084;16.748;2023-02-28T17:44:48;19.40;;;7.50;;
72095;SDS011;59968;51.084;16.748;2023-02-28T17:47:18;22.20;;;8.50;;
72095;SDS011;59968;51.084;16.748;2023-02-28T17:49:51;21.90;;;9.10;;
72095;SDS011;59968;51.084;16.748;2023-02-28T17:52:22;26.40;;;11.30;;
72095;SDS011;59968;51.084;16.748;2023-02-28T17:54:50;26.90;;;11.80;;
72095;SDS011;59968;51.084;16.748;2023-02-28T17:57:19;29.20;;;12.00;;
72095;SDS011;59968;51.084;16.748;2023-02-28T17:59:48;28.80;;;12.00;;
72095;SDS011;59968;51.084;16.748;2023-02-28T18:02:17;23.50;;;9.60;;
72095;SDS011;59968;51.084;16.748;2023-02-28T18:04:46;27.10;;;10.90;;